Time;durP1;ratioP1;P1;durP2;ratioP2;P2;SDS_P1;SDS_P2;PMS_P1;PMS_P2;Temp;Humidity;BMP_temperature;BMP_pressure;BME280_temperature;BME280_humidity;BME280_pressure;Samples;Min_cycle;Max_cycle;Signal;HPM_P1;HPM_P2
2024/03/28 00:02:20;;;;;;;1.98;1.35;;;;;;;16.52;54.00;97768.13;4451018;31;33174;-84
2024/03/28 00:04:47;;;;;;;11.57;1.30;;;;;;;16.63;53.75;97765.22;4485455;31;33385;-84
2024/03/28 00:07:13;;;;;;;1.10;1.00;;;;;;;16.90;53.10;97760.75;4469644;31;32757;-83
2024/03/28 00:09:40;;;;;;;9.75;1.95;;;;;;;16.60;54.17;97754.84;4471760;31;34130;-84
2024/03/28 00:12:07;;;;;;;2.33;1.37;;;;;;;16.61;54.25;97759.19;4450676;31;32595;-84
2024/03/28 00:14:34;;;;;;;11.23;2.33;;;;;;;16.33;55.18;97769.13;4474856;31;32250;-84
2024/03/28 00:17:01;;;;;;;1.77;1.70;;;;;;;16.55;54.74;97762.47;4475827;31;33165;-84
2024/03/28 00:19:28;;;;;;;0.20;0.20;;;;;;;16.52;55.16;97754.81;4484311;31;33924;-83
2024/03/28 00:21:54;;;;;;;6.75;2.45;;;;;;;16.83;54.47;97755.22;4462429;31;33072;-84
2024/03/28 00:24:21;;;;;;;3.22;2.55;;;;;;;16.56;55.50;97756.12;4485916;31;33102;-83
2024/03/28 00:26:48;;;;;;;2.00;1.75;;;;;;;16.63;55.32;97748.38;4456810;31;34410;-83
2024/03/28 00:29:14;;;;;;;1.15;0.95;;;;;;;16.78;55.00;97738.03;4460511;31;32988;-83
2024/03/28 00:31:41;;;;;;;8.77;2.12;;;;;;;16.65;55.38;97725.91;4464722;31;32359;-83
2024/03/28 00:34:08;;;;;;;2.00;1.65;;;;;;;16.91;54.70;97725.13;4470668;31;33530;-83
2024/03/28 00:36:34;;;;;;;1.02;0.98;;;;;;;16.69;55.44;97720.28;4467564;31;32588;-83
2024/03/28 00:39:02;;;;;;;6.35;2.22;;;;;;;16.34;56.48;97730.00;4471786;31;33577;-83
2024/03/28 00:41:29;;;;;;;0.22;0.22;;;;;;;16.49;56.23;97725.81;4455726;31;34787;-83
2024/03/28 00:43:56;;;;;;;8.38;2.37;;;;;;;16.44;56.46;97721.94;4454368;32;32021;-83
2024/03/28 00:46:22;;;;;;;7.45;2.78;;;;;;;16.24;57.18;97719.44;4470504;31;35319;-83
2024/03/28 00:48:49;;;;;;;0.77;0.77;;;;;;;16.09;57.83;97727.13;4472102;31;32723;-83
2024/03/28 00:51:16;;;;;;;8.07;3.80;;;;;;;16.30;57.34;97718.00;4483444;31;33789;-84
2024/03/28 00:53:42;;;;;;;2.85;1.52;;;;;;;16.43;56.96;97725.59;4477007;31;32865;-82
2024/03/28 00:56:09;;;;;;;1.08;0.75;;;;;;;16.39;57.18;97723.22;4472023;31;33222;-82
2024/03/28 00:58:36;;;;;;;1.17;1.10;;;;;;;16.37;57.27;97721.69;4463830;31;32513;-82
2024/03/28 01:01:03;;;;;;;4.37;1.80;;;;;;;16.53;56.91;97716.50;4471615;31;33770;-82
2024/03/28 01:03:30;;;;;;;6.72;3.03;;;;;;;16.78;56.34;97704.22;4469918;31;33732;-82
2024/03/28 01:06:00;;;;;;;1.12;1.08;;;;;;;16.82;56.30;97704.75;4466004;31;32317;-82
2024/03/28 01:08:27;;;;;;;1.92;1.80;;;;;;;16.64;56.69;97700.25;4479151;31;32714;-82
2024/03/28 01:10:54;;;;;;;1.58;1.45;;;;;;;16.55;57.14;97703.03;4462318;31;34095;-82
2024/03/28 01:13:21;;;;;;;2.20;0.43;;;;;;;16.74;56.41;97702.00;4458284;31;32569;-82
2024/03/28 01:15:47;;;;;;;1.65;0.90;;;;;;;16.86;56.16;97701.59;4475275;31;33214;-82
2024/03/28 01:18:14;;;;;;;7.07;1.58;;;;;;;16.46;57.71;97715.44;4457364;31;34257;-82
2024/03/28 01:20:40;;;;;;;2.72;1.62;;;;;;;16.56;58.13;97716.19;4484804;31;33993;-83
2024/03/28 01:23:07;;;;;;;8.98;3.50;;;;;;;16.77;57.41;97707.87;4468497;31;32522;-82
2024/03/28 01:25:34;;;;;;;5.03;3.40;;;;;;;16.52;58.63;97714.84;4457822;31;35458;-83
2024/03/28 01:28:00;;;;;;;4.25;2.78;;;;;;;16.24;59.89;97729.25;4473122;31;34285;-82
2024/03/28 01:30:27;;;;;;;3.60;1.70;;;;;;;15.96;61.28;97724.00;4473160;31;33349;-82
2024/03/28 01:32:54;;;;;;;13.77;3.05;;;;;;;16.10;61.03;97736.78;4459609;31;35357;-82
2024/03/28 01:35:20;;;;;;;4.30;2.53;;;;;;;16.00;61.61;97740.50;4481962;31;33367;-82
2024/03/28 01:37:48;;;;;;;1.50;1.40;;;;;;;15.55;63.84;97746.63;4472374;31;32875;-82
2024/03/28 01:40:15;;;;;;;2.85;1.65;;;;;;;15.62;64.26;97748.56;4472071;31;34078;-81
2024/03/28 01:42:41;;;;;;;4.35;2.70;;;;;;;15.51;64.54;97738.09;4460531;31;32941;-82
2024/03/28 01:45:09;;;;;;;1.40;1.30;;;;;;;15.47;64.48;97734.06;4474572;31;34284;-82
2024/03/28 01:47:36;;;;;;;1.20;0.88;;;;;;;15.69;63.62;97718.72;4468756;31;34390;-84
2024/03/28 01:50:03;;;;;;;4.60;1.58;;;;;;;15.41;65.07;97712.56;4464623;31;34125;-84
2024/03/28 01:52:30;;;;;;;1.10;0.75;;;;;;;15.29;65.75;97698.63;4454672;31;33192;-84
2024/03/28 01:54:56;;;;;;;0.55;0.47;;;;;;;15.63;64.96;97701.53;4465802;31;34455;-84
2024/03/28 01:57:23;;;;;;;2.22;1.25;;;;;;;15.27;66.28;97733.34;4466623;31;33507;-84
2024/03/28 01:59:50;;;;;;;8.02;1.25;;;;;;;14.97;67.61;97722.97;4446251;31;33802;-85
2024/03/28 02:02:19;;;;;;;2.22;1.48;;;;;;;15.08;67.59;97702.34;4457548;31;32780;-86
2024/03/28 02:04:46;;;;;;;0.52;0.52;;;;;;;15.35;66.27;97692.72;4471199;31;34384;-86
2024/03/28 02:07:13;;;;;;;3.35;2.03;;;;;;;15.50;66.05;97669.94;4472706;31;34157;-86
2024/03/28 02:09:39;;;;;;;2.90;2.17;;;;;;;15.67;64.92;97648.88;4463067;31;33224;-86
2024/03/28 02:12:06;;;;;;;1.10;1.08;;;;;;;15.47;66.35;97662.25;4463041;31;33705;-85
2024/03/28 02:14:34;;;;;;;9.88;4.20;;;;;;;15.40;66.36;97702.91;4470250;31;33342;-82
2024/03/28 02:17:05;;;;;;;1.52;0.77;;;;;;;15.34;67.67;97707.00;4462738;31;32617;-81
2024/03/28 02:19:34;;;;;;;0.75;0.75;;;;;;;15.32;67.28;97677.06;4459472;31;34309;-81
2024/03/28 02:22:01;;;;;;;0.05;0.05;;;;;;;15.62;65.59;97679.41;4470760;31;33717;-82
2024/03/28 02:24:28;;;;;;;7.43;2.72;;;;;;;15.28;66.37;97721.69;4472899;31;33059;-81
2024/03/28 02:26:56;;;;;;;0.10;0.10;;;;;;;15.27;66.54;97756.44;4446026;31;35398;-82
2024/03/28 02:29:22;;;;;;;1.62;1.23;;;;;;;15.24;66.94;97764.69;4483138;31;34569;-81
2024/03/28 02:31:48;;;;;;;1.05;0.82;;;;;;;14.94;68.21;97758.63;4472485;31;31794;-82
2024/03/28 02:34:15;;;;;;;7.95;2.55;;;;;;;15.36;67.02;97734.28;4471597;31;33553;-82
2024/03/28 02:36:42;;;;;;;5.57;1.27;;;;;;;15.29;67.01;97735.88;4468822;31;33027;-82
2024/03/28 02:39:09;;;;;;;1.33;1.23;;;;;;;15.29;67.72;97734.03;4459398;31;33971;-84
2024/03/28 02:41:36;;;;;;;1.15;1.05;;;;;;;15.07;68.01;97753.00;4456429;31;34268;-84
2024/03/28 02:44:03;;;;;;;0.37;0.35;;;;;;;15.26;67.92;97754.75;4468510;31;32685;-84
2024/03/28 02:46:29;;;;;;;1.23;1.15;;;;;;;15.46;67.24;97759.00;4468892;31;33691;-84
2024/03/28 02:48:56;;;;;;;2.35;1.92;;;;;;;15.22;68.58;97769.31;4476516;31;33817;-84
2024/03/28 02:51:23;;;;;;;2.72;1.90;;;;;;;15.30;67.72;97774.75;4472411;31;32965;-83
2024/03/28 02:53:49;;;;;;;8.88;2.12;;;;;;;15.45;67.16;97757.31;4470540;31;32085;-83
2024/03/28 02:56:16;;;;;;;1.95;1.85;;;;;;;15.52;66.90;97753.06;4455403;31;34680;-83
2024/03/28 02:58:43;;;;;;;10.30;2.05;;;;;;;15.64;66.54;97755.59;4471155;31;33585;-83
2024/03/28 03:01:10;;;;;;;2.70;2.12;;;;;;;15.38;67.48;97750.91;4484212;31;33631;-83
2024/03/28 03:03:37;;;;;;;3.30;2.00;;;;;;;15.02;68.96;97750.78;4456190;31;34248;-83
2024/03/28 03:06:03;;;;;;;0.82;0.82;;;;;;;15.08;68.94;97771.47;4460487;31;33640;-82
2024/03/28 03:08:30;;;;;;;4.87;2.95;;;;;;;14.82;70.33;97770.44;4479059;31;34707;-83
2024/03/28 03:10:57;;;;;;;1.85;1.42;;;;;;;14.93;70.28;97782.69;4464280;31;34758;-83
2024/03/28 03:13:23;;;;;;;1.33;1.33;;;;;;;14.79;70.80;97794.62;4473291;31;33826;-82
2024/03/28 03:15:57;;;;;;;3.33;1.67;;;;;;;14.60;71.73;97792.81;4457181;31;32543;-83
2024/03/28 03:18:26;;;;;;;3.00;2.00;;;;;;;14.22;72.96;97799.78;4470264;31;32398;-82
2024/03/28 03:21:00;;;;;;;2.95;2.08;;;;;;;14.17;72.99;97801.16;4481512;31;32053;-82
2024/03/28 03:23:35;;;;;;;3.53;2.20;;;;;;;14.07;73.54;97806.47;4466120;31;33596;-82
2024/03/28 03:26:11;;;;;;;36.13;2.33;;;;;;;13.84;74.00;97817.31;4470085;31;34208;-83
2024/03/28 03:36:56;;;;;;;0.03;0.03;;;;;;;13.92;73.99;97807.84;4475610;31;33026;-83
2024/03/28 03:39:23;;;;;;;3.83;2.20;;;;;;;13.89;73.51;97819.56;4459528;31;34450;-81
2024/03/28 03:41:50;;;;;;;0.47;0.47;;;;;;;13.90;73.82;97818.56;4467189;31;32635;-82
2024/03/28 03:44:16;;;;;;;1.45;1.35;;;;;;;14.09;72.41;97825.72;4467698;31;33966;-82
2024/03/28 03:46:43;;;;;;;0.55;0.40;;;;;;;13.59;73.44;97833.72;4464756;31;33435;-82
2024/03/28 03:49:11;;;;;;;0.00;0.00;;;;;;;13.82;72.11;97819.28;4473931;31;32300;-83
2024/03/28 03:51:38;;;;;;;0.75;0.43;;;;;;;13.84;72.17;97819.97;4459673;31;32719;-83
2024/03/28 03:54:05;;;;;;;0.73;0.73;;;;;;;13.88;71.25;97823.19;4471243;31;33771;-83
2024/03/28 03:56:31;;;;;;;0.03;0.03;;;;;;;13.99;70.78;97819.56;4477736;31;32750;-83
2024/03/28 03:58:58;;;;;;;0.00;0.00;;;;;;;13.84;70.89;97822.63;4474864;31;32862;-82
2024/03/28 04:01:25;;;;;;;0.00;0.00;;;;;;;13.70;71.05;97835.41;4464826;31;33660;-82
2024/03/28 04:03:52;;;;;;;0.00;0.00;;;;;;;14.01;70.46;97839.72;4466764;31;34779;-82
2024/03/28 04:06:18;;;;;;;0.00;0.00;;;;;;;13.93;69.86;97838.69;4474062;31;33314;-82
2024/03/28 04:08:45;;;;;;;0.00;0.00;;;;;;;13.99;69.42;97846.94;4478113;31;33649;-82
2024/03/28 04:11:13;;;;;;;0.13;0.13;;;;;;;13.68;68.41;97859.44;4450461;31;34133;-82
2024/03/28 04:13:39;;;;;;;0.00;0.00;;;;;;;13.63;69.00;97847.56;4470994;31;34221;-82
2024/03/28 04:16:06;;;;;;;0.00;0.00;;;;;;;13.71;67.88;97853.84;4462597;31;33495;-82
2024/03/28 04:18:34;;;;;;;0.00;0.00;;;;;;;13.61;67.20;97854.78;4470930;31;33055;-83
2024/03/28 04:21:01;;;;;;;0.00;0.00;;;;;;;13.61;66.80;97863.56;4486254;31;33991;-82
2024/03/28 04:23:27;;;;;;;0.00;0.00;;;;;;;13.73;66.30;97856.38;4472003;31;33154;-82
2024/03/28 04:25:55;;;;;;;0.00;0.00;;;;;;;13.76;65.06;97862.22;4457349;31;34751;-82
2024/03/28 04:28:22;;;;;;;0.10;0.10;;;;;;;13.88;64.05;97865.63;4472902;31;34473;-82
2024/03/28 04:30:49;;;;;;;0.10;0.10;;;;;;;13.83;64.34;97874.00;4478828;31;32600;-82
2024/03/28 04:33:16;;;;;;;0.00;0.00;;;;;;;13.72;63.81;97860.84;4466375;31;34294;-82
2024/03/28 04:35:45;;;;;;;0.00;0.00;;;;;;;13.58;64.29;97871.81;4481489;31;34049;-81
2024/03/28 04:38:12;;;;;;;0.47;0.32;;;;;;;13.57;64.37;97863.00;4459956;31;32858;-82
2024/03/28 04:40:40;;;;;;;0.60;0.60;;;;;;;13.71;63.96;97875.06;4479656;31;32785;-82
2024/03/28 04:43:06;;;;;;;0.70;0.40;;;;;;;13.92;63.63;97888.28;4494190;31;33942;-81
2024/03/28 04:45:33;;;;;;;0.00;0.00;;;;;;;13.37;65.21;97893.03;4462425;31;33356;-81
2024/03/28 04:48:00;;;;;;;0.10;0.00;;;;;;;13.62;65.18;97901.53;4461592;31;34077;-83
2024/03/28 04:50:26;;;;;;;0.00;0.00;;;;;;;13.70;64.92;97893.75;4474653;31;33223;-82
2024/03/28 04:52:54;;;;;;;0.00;0.00;;;;;;;13.25;66.49;97887.00;4472809;31;32911;-82
2024/03/28 04:55:20;;;;;;;0.20;0.20;;;;;;;13.18;66.79;97893.72;4466814;32;35013;-82
2024/03/28 04:57:47;;;;;;;0.00;0.00;;;;;;;13.08;67.26;97891.03;4462411;31;32882;-82
2024/03/28 05:00:14;;;;;;;0.00;0.00;;;;;;;13.32;66.52;97889.94;4483730;31;33006;-82
2024/03/28 05:02:41;;;;;;;0.00;0.00;;;;;;;13.10;67.22;97895.34;4461858;31;31959;-82
2024/03/28 05:05:11;;;;;;;0.00;0.00;;;;;;;12.92;67.45;97900.41;4472171;31;32551;-82
2024/03/28 05:07:37;;;;;;;0.20;0.20;;;;;;;12.81;67.42;97890.69;4455066;32;32496;-82
2024/03/28 05:10:05;;;;;;;5.82;0.65;;;;;;;12.51;68.07;97888.75;4451545;31;35118;-82
2024/03/28 05:12:32;;;;;;;0.00;0.00;;;;;;;12.65;67.89;97898.22;4482588;31;33458;-82
2024/03/28 05:15:01;;;;;;;0.00;0.00;;;;;;;12.29;68.06;97895.78;4472426;31;32600;-82
2024/03/28 05:17:30;;;;;;;0.20;0.20;;;;;;;12.53;67.05;97914.16;4463160;31;34572;-82
2024/03/28 05:19:56;;;;;;;0.00;0.00;;;;;;;12.43;67.18;97910.56;4462819;31;33679;-82
2024/03/28 05:22:25;;;;;;;0.00;0.00;;;;;;;12.64;66.35;97923.03;4472186;31;32779;-82
2024/03/28 05:24:51;;;;;;;0.00;0.00;;;;;;;12.74;66.12;97921.28;4457899;31;34918;-83
2024/03/28 05:27:18;;;;;;;0.00;0.00;;;;;;;12.44;66.11;97922.84;4473852;31;32852;-82
2024/03/28 05:29:44;;;;;;;0.10;0.10;;;;;;;12.77;65.16;97931.62;4470488;32;32171;-83
2024/03/28 05:32:11;;;;;;;0.00;0.00;;;;;;;12.48;65.46;97937.50;4457741;31;32513;-82
2024/03/28 05:34:38;;;;;;;0.00;0.00;;;;;;;12.39;65.94;97945.34;4465336;31;32626;-82
2024/03/28 05:37:04;;;;;;;0.00;0.00;;;;;;;12.13;65.77;97950.06;4469848;31;32885;-84
2024/03/28 05:39:32;;;;;;;0.00;0.00;;;;;;;11.89;66.52;97953.69;4458598;31;34317;-84
2024/03/28 05:41:58;;;;;;;0.00;0.00;;;;;;;11.96;66.58;97956.69;4469315;31;33171;-84
2024/03/28 05:44:25;;;;;;;0.00;0.00;;;;;;;11.57;66.33;97977.31;4477132;31;33803;-82
2024/03/28 05:46:52;;;;;;;0.10;0.10;;;;;;;12.21;64.86;97971.50;4442771;31;34634;-82
2024/03/28 05:49:18;;;;;;;0.00;0.00;;;;;;;12.10;65.16;97979.41;4476951;31;33592;-83
2024/03/28 05:51:45;;;;;;;0.00;0.00;;;;;;;12.45;63.83;97974.81;4472746;31;32722;-82
2024/03/28 05:54:12;;;;;;;0.10;0.10;;;;;;;12.23;64.73;97985.44;4453347;31;34729;-82
2024/03/28 05:56:39;;;;;;;0.00;0.00;;;;;;;12.32;64.11;97995.28;4493240;31;33408;-83
2024/03/28 05:59:06;;;;;;;0.00;0.00;;;;;;;11.87;65.03;98005.88;4478229;31;33330;-83
2024/03/28 06:01:33;;;;;;;0.00;0.00;;;;;;;12.63;62.95;98017.50;4466097;31;34748;-82
2024/03/28 06:04:00;;;;;;;0.00;0.00;;;;;;;12.09;63.33;98020.06;4461682;31;33123;-82
2024/03/28 06:06:27;;;;;;;0.00;0.00;;;;;;;12.30;63.05;98027.16;4480364;31;33036;-83
2024/03/28 06:08:53;;;;;;;0.00;0.00;;;;;;;12.44;61.85;98023.44;4476248;31;33678;-83
2024/03/28 06:11:20;;;;;;;0.10;0.10;;;;;;;12.08;62.72;98039.56;4458617;31;34387;-83
2024/03/28 06:13:47;;;;;;;0.05;0.05;;;;;;;11.96;63.20;98043.97;4476279;31;33126;-83
2024/03/28 06:16:13;;;;;;;0.00;0.00;;;;;;;12.27;62.09;98051.22;4475071;31;33006;-82
2024/03/28 06:18:41;;;;;;;0.00;0.00;;;;;;;12.43;62.08;98045.53;4481256;31;33499;-82
2024/03/28 06:21:08;;;;;;;4.15;1.10;;;;;;;12.73;60.61;98041.44;4469955;31;32365;-82
2024/03/28 06:23:34;;;;;;;0.05;0.05;;;;;;;12.15;61.44;98040.75;4475278;31;32562;-82
2024/03/28 06:26:02;;;;;;;1.25;0.98;;;;;;;12.32;61.38;98042.91;4448734;31;34652;-82
2024/03/28 06:28:30;;;;;;;0.00;0.00;;;;;;;12.27;61.09;98039.78;4479549;32;34374;-82
2024/03/28 06:30:59;;;;;;;0.00;0.00;;;;;;;12.14;61.48;98045.19;4473383;31;32265;-82
2024/03/28 06:33:26;;;;;;;0.00;0.00;;;;;;;12.36;61.21;98049.66;4462461;31;34763;-82
2024/03/28 06:35:52;;;;;;;0.20;0.20;;;;;;;12.67;60.62;98060.44;4476413;31;32828;-82
2024/03/28 06:38:19;;;;;;;0.55;0.55;;;;;;;12.73;59.43;98057.34;4468058;31;32325;-82
2024/03/28 06:40:46;;;;;;;0.00;0.00;;;;;;;12.81;59.34;98063.66;4463970;31;33213;-82
2024/03/28 06:43:14;;;;;;;0.00;0.00;;;;;;;12.54;59.32;98074.69;4467057;31;32562;-82
2024/03/28 06:45:42;;;;;;;0.00;0.00;;;;;;;12.53;59.72;98077.44;4460009;31;34506;-83
2024/03/28 06:48:09;;;;;;;0.00;0.00;;;;;;;12.43;59.21;98077.31;4461208;31;33836;-82
2024/03/28 06:50:35;;;;;;;0.00;0.00;;;;;;;12.46;59.49;98087.66;4454222;32;32987;-83
2024/03/28 06:53:05;;;;;;;3.40;0.82;;;;;;;12.62;59.27;98087.28;4449776;32;34054;-83
2024/03/28 06:55:32;;;;;;;0.15;0.15;;;;;;;13.21;57.73;98083.47;4430425;32;34118;-83
2024/03/28 06:57:58;;;;;;;0.00;0.00;;;;;;;13.10;57.26;98081.66;4447618;32;32766;-83
2024/03/28 07:00:25;;;;;;;0.00;0.00;;;;;;;13.13;56.84;98078.78;4449796;32;32019;-83
2024/03/28 07:02:52;;;;;;;0.30;0.30;;;;;;;13.68;56.39;98070.78;4456220;32;35543;-83
2024/03/28 07:05:18;;;;;;;0.00;0.00;;;;;;;13.45;55.99;98081.47;4451058;32;33784;-81
2024/03/28 07:07:45;;;;;;;0.90;0.35;;;;;;;13.94;54.68;98071.22;4451141;32;32354;-81
2024/03/28 07:10:12;;;;;;;0.68;0.47;;;;;;;14.01;54.19;98070.56;4466016;32;34326;-84
2024/03/28 07:12:39;;;;;;;1.45;0.65;;;;;;;13.13;55.70;98080.59;4460956;32;32466;-85
2024/03/28 07:15:09;;;;;;;0.00;0.00;;;;;;;13.54;54.93;98079.87;4453947;32;32519;-85
2024/03/28 07:17:36;;;;;;;6.28;1.10;;;;;;;13.57;54.47;98080.44;4447382;32;34036;-84
2024/03/28 07:20:03;;;;;;;0.00;0.00;;;;;;;13.94;53.86;98085.31;4435824;32;31434;-85
2024/03/28 07:22:30;;;;;;;0.00;0.00;;;;;;;13.73;53.42;98101.25;4451214;32;32898;-86
2024/03/28 07:24:57;;;;;;;0.10;0.10;;;;;;;13.54;53.01;98093.97;4463254;32;34121;-84
2024/03/28 07:27:27;;;;;;;0.05;0.05;;;;;;;13.89;52.62;98100.78;4434212;32;31814;-84
2024/03/28 07:29:53;;;;;;;0.00;0.00;;;;;;;13.95;51.68;98110.87;4445899;32;34084;-86
2024/03/28 07:32:22;;;;;;;0.00;0.00;;;;;;;14.34;50.63;98122.59;4448159;32;34985;-85
2024/03/28 07:34:49;;;;;;;4.03;0.88;;;;;;;14.92;48.51;98124.69;4427811;32;32370;-85
2024/03/28 07:37:16;;;;;;;0.00;0.00;;;;;;;14.43;49.55;98123.63;4437016;32;33038;-85
2024/03/28 07:39:44;;;;;;;0.00;0.00;;;;;;;14.36;49.72;98130.41;4450558;32;34630;-84
2024/03/28 07:42:10;;;;;;;0.00;0.00;;;;;;;14.30;49.59;98136.25;4459337;32;33877;-84
2024/03/28 07:44:37;;;;;;;0.00;0.00;;;;;;;14.16;50.14;98128.63;4436594;32;33488;-84
2024/03/28 07:47:04;;;;;;;0.00;0.00;;;;;;;14.55;49.21;98135.00;4438351;32;32936;-84
2024/03/28 07:49:31;;;;;;;0.00;0.00;;;;;;;15.00;48.81;98134.59;4437376;32;33976;-84
2024/03/28 07:51:59;;;;;;;0.13;0.10;;;;;;;14.47;49.08;98132.97;4456336;32;32575;-85
2024/03/28 07:54:27;;;;;;;0.00;0.00;;;;;;;14.99;48.77;98123.16;4432469;32;33403;-85
2024/03/28 07:56:54;;;;;;;0.03;0.03;;;;;;;14.92;46.14;98137.97;4471001;32;32380;-85
2024/03/28 07:59:20;;;;;;;2.30;0.90;;;;;;;14.88;45.99;98135.72;4454376;32;33393;-85
2024/03/28 08:01:47;;;;;;;0.00;0.00;;;;;;;15.15;43.82;98129.78;4456294;32;33535;-84
2024/03/28 08:04:15;;;;;;;0.00;0.00;;;;;;;15.21;44.11;98131.88;4457042;32;33821;-85
2024/03/28 08:06:42;;;;;;;0.65;0.32;;;;;;;15.29;43.94;98124.91;4455856;32;32506;-85
2024/03/28 08:09:09;;;;;;;0.00;0.00;;;;;;;15.62;43.67;98131.66;4468950;32;34433;-85
2024/03/28 08:11:36;;;;;;;0.00;0.00;;;;;;;15.53;43.51;98116.53;4434745;32;32406;-84
2024/03/28 08:14:13;;;;;;;0.13;0.10;;;;;;;15.64;42.76;98118.25;4447815;31;32835;-85
2024/03/28 08:16:45;;;;;;;0.00;0.00;;;;;;;15.74;43.41;98124.41;4428758;32;32326;-85
2024/03/28 08:19:13;;;;;;;0.10;0.10;;;;;;;16.03;43.05;98131.53;4444642;32;33536;-84
2024/03/28 08:21:39;;;;;;;0.00;0.00;;;;;;;16.52;41.54;98129.59;4467816;32;32641;-84
2024/03/28 08:24:06;;;;;;;0.00;0.00;;;;;;;16.70;40.64;98143.84;4444599;32;32801;-85
2024/03/28 08:26:33;;;;;;;0.00;0.00;;;;;;;16.44;41.20;98143.66;4463721;32;33658;-85
2024/03/28 08:29:00;;;;;;;0.00;0.00;;;;;;;17.24;40.71;98130.72;4444596;32;32771;-84
2024/03/28 08:31:27;;;;;;;0.00;0.00;;;;;;;16.86;40.28;98137.94;4431334;32;33370;-84
2024/03/28 08:33:54;;;;;;;0.10;0.10;;;;;;;17.13;39.89;98129.06;4444031;32;32438;-85
2024/03/28 08:36:20;;;;;;;0.00;0.00;;;;;;;16.83;39.70;98128.38;4470054;32;33941;-84
2024/03/28 08:38:47;;;;;;;0.05;0.05;;;;;;;17.43;38.99;98135.09;4430795;32;34526;-84
2024/03/28 08:41:14;;;;;;;0.00;0.00;;;;;;;17.14;38.39;98142.28;4469632;32;34662;-85
2024/03/28 08:43:47;;;;;;;0.00;0.00;;;;;;;16.88;38.65;98151.94;4469325;32;33730;-84
2024/03/28 08:46:14;;;;;;;0.00;0.00;;;;;;;16.93;38.70;98149.66;4455525;32;34455;-84
2024/03/28 08:48:46;;;;;;;0.30;0.30;;;;;;;16.97;39.35;98144.88;4456279;32;33909;-84
2024/03/28 08:51:13;;;;;;;0.13;0.13;;;;;;;17.37;38.80;98132.00;4445610;31;33563;-84
2024/03/28 08:53:40;;;;;;;0.10;0.10;;;;;;;17.20;38.61;98140.00;4468660;31;34344;-84
2024/03/28 08:56:08;;;;;;;0.00;0.00;;;;;;;16.82;38.97;98136.53;4457465;32;33762;-84
2024/03/28 08:58:35;;;;;;;0.00;0.00;;;;;;;17.00;38.27;98137.44;4469154;32;32595;-84
2024/03/28 09:01:02;;;;;;;0.30;0.13;;;;;;;16.30;38.06;98152.94;4443902;32;33314;-84
2024/03/28 09:03:30;;;;;;;0.00;0.00;;;;;;;16.40;38.51;98150.25;4456880;32;35633;-83
2024/03/28 09:05:58;;;;;;;0.00;0.00;;;;;;;16.89;38.30;98148.28;4456293;32;33115;-84
2024/03/28 09:08:26;;;;;;;0.00;0.00;;;;;;;17.27;37.46;98157.06;4469916;32;33760;-84
2024/03/28 09:10:54;;;;;;;0.00;0.00;;;;;;;17.52;36.41;98156.37;4456422;32;34121;-83
2024/03/28 09:17:46;;;;;;;0.10;0.00;;;;;;;17.65;35.83;98166.66;4447148;32;33005;-84
2024/03/28 09:20:36;;;;;;;0.00;0.00;;;;;;;17.81;33.93;98155.34;4453205;32;33743;-83
2024/03/28 09:23:03;;;;;;;0.03;0.03;;;;;;;17.21;35.33;98160.34;4443233;31;36658;-84
2024/03/28 09:25:29;;;;;;;0.00;0.00;;;;;;;17.19;35.60;98157.00;4466251;32;34374;-84
2024/03/28 09:27:59;;;;;;;0.00;0.00;;;;;;;16.95;36.35;98158.38;4443807;31;33502;-85
2024/03/28 09:30:27;;;;;;;0.00;0.00;;;;;;;17.77;35.52;98143.28;4443309;32;34537;-86
2024/03/28 09:32:54;;;;;;;0.00;0.00;;;;;;;18.13;35.03;98118.22;4455889;32;33177;-85
2024/03/28 09:35:21;;;;;;;0.00;0.00;;;;;;;17.94;34.81;98139.75;4442579;32;33094;-84
2024/03/28 09:37:48;;;;;;;0.00;0.00;;;;;;;17.64;34.48;98144.47;4436689;32;32978;-85
2024/03/28 09:40:15;;;;;;;0.03;0.03;;;;;;;17.69;35.42;98154.69;4442586;32;32961;-84
2024/03/28 09:42:44;;;;;;;0.00;0.00;;;;;;;17.71;35.78;98143.84;4467795;32;34011;-84
2024/03/28 09:45:14;;;;;;;0.00;0.00;;;;;;;17.75;34.99;98145.25;4453936;31;35551;-84
2024/03/28 09:47:41;;;;;;;0.00;0.00;;;;;;;17.66;34.92;98160.34;4454468;32;33316;-84
2024/03/28 09:50:13;;;;;;;0.28;0.28;;;;;;;17.76;34.08;98162.97;4468565;32;32848;-83
2024/03/28 09:52:42;;;;;;;0.75;0.70;;;;;;;17.74;33.75;98175.62;4446177;32;35994;-84
2024/03/28 09:55:09;;;;;;;0.00;0.00;;;;;;;17.47;33.93;98184.47;4455043;32;34252;-84
2024/03/28 09:57:37;;;;;;;0.00;0.00;;;;;;;17.78;34.25;98182.34;4456407;32;32258;-84
2024/03/28 10:00:05;;;;;;;0.00;0.00;;;;;;;18.12;34.11;98169.97;4430345;32;34570;-84
2024/03/28 10:02:56;;;;;;;1.20;1.10;;;;;;;17.99;34.41;98193.53;4451027;31;33400;-84
2024/03/28 10:05:24;;;;;;;0.00;0.00;;;;;;;18.32;34.01;98199.16;4430571;32;32524;-84
2024/03/28 10:07:51;;;;;;;0.10;0.10;;;;;;;18.32;34.00;98183.12;4455854;32;32115;-84
2024/03/28 10:10:18;;;;;;;0.00;0.00;;;;;;;18.64;33.21;98195.91;4456065;31;33382;-84
2024/03/28 10:12:52;;;;;;;0.00;0.00;;;;;;;17.98;33.22;98194.53;4455446;32;34217;-85
2024/03/28 10:15:19;;;;;;;0.00;0.00;;;;;;;17.82;33.57;98199.75;4443609;32;33055;-86
2024/03/28 10:18:00;;;;;;;0.10;0.10;;;;;;;17.56;33.15;98205.75;4443255;32;33882;-85
2024/03/28 10:20:27;;;;;;;0.00;0.00;;;;;;;17.71;34.02;98200.78;4467462;32;33706;-84
2024/03/28 10:22:54;;;;;;;1.87;0.32;;;;;;;18.09;34.50;98215.69;4454836;32;35364;-83
2024/03/28 10:25:25;;;;;;;0.00;0.00;;;;;;;18.71;33.45;98204.19;4454752;31;34693;-84
2024/03/28 10:28:00;;;;;;;0.00;0.00;;;;;;;19.05;32.60;98206.88;4456857;32;33305;-83
2024/03/28 10:30:27;;;;;;;0.00;0.00;;;;;;;19.07;32.06;98208.38;4442580;32;34877;-84
2024/03/28 10:32:58;;;;;;;0.00;0.00;;;;;;;19.34;32.82;98214.53;4464838;32;33583;-84
2024/03/28 10:35:25;;;;;;;0.00;0.00;;;;;;;18.95;31.88;98217.69;4454882;32;33360;-84
2024/03/28 10:38:18;;;;;;;0.00;0.00;;;;;;;18.61;32.63;98220.25;4438275;32;32786;-83
2024/03/28 10:40:45;;;;;;;0.00;0.00;;;;;;;18.63;32.16;98218.28;4452723;32;33590;-85
2024/03/28 10:43:16;;;;;;;0.00;0.00;;;;;;;18.78;32.47;98219.41;4430645;32;32490;-85
2024/03/28 10:45:44;;;;;;;0.00;0.00;;;;;;;19.22;31.07;98229.19;4441345;32;32882;-84
2024/03/28 10:48:15;;;;;;;0.00;0.00;;;;;;;19.13;31.83;98228.31;4443075;32;33359;-85
2024/03/28 10:51:17;;;;;;;0.00;0.00;;;;;;;19.02;32.05;98218.72;4432482;32;34616;-84
2024/03/28 10:53:53;;;;;;;4.20;0.40;;;;;;;19.49;32.18;98236.16;4446464;32;33376;-84
2024/03/28 10:56:22;;;;;;;0.00;0.00;;;;;;;19.85;31.35;98234.16;4443453;32;32757;-84
2024/03/28 10:58:49;;;;;;;0.00;0.00;;;;;;;20.37;30.96;98225.84;4441035;32;31899;-84
2024/03/28 11:01:16;;;;;;;0.57;0.30;;;;;;;19.81;31.02;98222.91;4456828;31;34575;-85
2024/03/28 11:03:43;;;;;;;0.03;0.03;;;;;;;19.14;31.40;98236.19;4457389;32;34670;-84
2024/03/28 11:06:10;;;;;;;0.00;0.00;;;;;;;19.31;31.53;98241.59;4457661;31;33135;-84
2024/03/28 11:08:38;;;;;;;0.20;0.20;;;;;;;20.21;31.21;98246.25;4469822;32;32884;-85
2024/03/28 11:11:05;;;;;;;0.00;0.00;;;;;;;20.06;30.99;98258.63;4455627;32;32686;-85
2024/03/28 11:13:32;;;;;;;0.00;0.00;;;;;;;19.58;30.68;98260.12;4469501;32;33366;-84
2024/03/28 11:16:21;;;;;;;0.10;0.10;;;;;;;19.53;31.08;98266.97;4456916;32;34014;-84
2024/03/28 11:18:48;;;;;;;0.98;0.30;;;;;;;19.76;30.58;98262.75;4442717;32;33809;-83
2024/03/28 11:21:28;;;;;;;0.00;0.00;;;;;;;19.61;31.15;98261.69;4443547;31;32422;-83
2024/03/28 11:23:55;;;;;;;0.00;0.00;;;;;;;19.54;31.22;98261.44;4456499;32;34481;-84
2024/03/28 11:26:24;;;;;;;0.00;0.00;;;;;;;18.64;32.04;98276.94;4446678;31;32610;-83
2024/03/28 11:29:01;;;;;;;3.05;0.57;;;;;;;18.89;31.74;98271.78;4455154;32;33508;-83
2024/03/28 11:31:28;;;;;;;0.00;0.00;;;;;;;18.83;32.34;98280.44;4453459;32;34551;-83
2024/03/28 11:34:02;;;;;;;1.75;0.47;;;;;;;18.87;31.89;98295.19;4469378;32;32778;-84
2024/03/28 11:36:31;;;;;;;0.00;0.00;;;;;;;18.76;31.74;98285.59;4430302;32;33075;-84
2024/03/28 11:38:58;;;;;;;0.00;0.00;;;;;;;19.38;31.61;98285.47;4454763;32;33271;-84
2024/03/28 11:41:26;;;;;;;0.75;0.20;;;;;;;19.57;30.83;98285.22;4456818;32;34752;-84
2024/03/28 11:43:54;;;;;;;0.90;0.37;;;;;;;19.84;30.72;98289.53;4455310;32;34971;-84
2024/03/28 11:46:26;;;;;;;0.03;0.03;;;;;;;19.88;30.28;98279.34;4447559;31;32228;-84
2024/03/28 11:48:55;;;;;;;0.20;0.20;;;;;;;19.72;30.55;98273.94;4456825;32;32153;-84
2024/03/28 11:51:22;;;;;;;0.00;0.00;;;;;;;19.77;30.58;98285.00;4464369;32;171640;-84